Time;durP1;ratioP1;P1;durP2;ratioP2;P2;SDS_P1;SDS_P2;PMS_P1;PMS_P2;Temp;Humidity;BMP_temperature;BMP_pressure;BME280_temperature;BME280_humidity;BME280_pressure;Samples;Min_cycle;Max_cycle;Signal;HPM_P1;HPM_P2
2022/10/24 00:01:59;;;;;;;5.20;2.88;;;;;;;12.75;100.00;98045.63;4156402;28;20221;-75
2022/10/24 00:03:59;;;;;;;6.85;2.67;;;;;;;12.85;100.00;98055.88;4157051;28;20080;-75
2022/10/24 00:05:59;;;;;;;5.78;2.67;;;;;;;12.92;100.00;98051.09;4155462;28;20057;-75
2022/10/24 00:08:00;;;;;;;6.13;2.97;;;;;;;13.02;100.00;98051.44;4155214;28;20395;-75
2022/10/24 00:10:00;;;;;;;8.45;2.63;;;;;;;13.21;100.00;98062.06;4157983;28;20297;-75
2022/10/24 00:12:01;;;;;;;6.70;2.50;;;;;;;13.40;100.00;98052.41;4154147;28;20601;-75
2022/10/24 00:14:02;;;;;;;6.65;2.83;;;;;;;13.60;100.00;98063.81;4157591;28;20053;-75
2022/10/24 00:16:03;;;;;;;7.20;2.40;;;;;;;13.64;100.00;98048.66;4158805;28;20095;-76
2022/10/24 00:18:04;;;;;;;5.68;2.65;;;;;;;13.72;100.00;98063.31;4156640;28;20560;-75
2022/10/24 00:20:05;;;;;;;6.22;2.88;;;;;;;13.70;100.00;98049.81;4157075;28;20128;-75
2022/10/24 00:22:06;;;;;;;11.32;2.78;;;;;;;13.80;100.00;98050.13;4157969;28;20035;-76
2022/10/24 00:24:07;;;;;;;5.78;2.60;;;;;;;13.88;100.00;98060.00;4154605;28;20033;-75
2022/10/24 00:26:09;;;;;;;7.05;2.60;;;;;;;13.95;100.00;98052.41;4157433;28;20041;-76
2022/10/24 00:28:09;;;;;;;8.80;2.63;;;;;;;14.00;100.00;98053.97;4158756;28;20497;-76
2022/10/24 00:30:10;;;;;;;7.47;2.63;;;;;;;14.04;100.00;98060.25;4158470;28;20101;-76
2022/10/24 00:32:10;;;;;;;5.82;2.45;;;;;;;14.10;100.00;98066.97;4159605;28;20029;-75
2022/10/24 00:34:11;;;;;;;6.57;2.90;;;;;;;14.13;100.00;98074.47;4159323;28;20033;-75
2022/10/24 00:36:15;;;;;;;7.05;3.05;;;;;;;14.09;100.00;98072.94;4159649;28;20581;-75
2022/10/24 00:38:16;;;;;;;7.75;3.10;;;;;;;14.05;100.00;98070.97;4161366;28;20071;-76
2022/10/24 00:40:18;;;;;;;5.28;2.42;;;;;;;14.06;100.00;98066.97;4160208;28;20478;-75
2022/10/24 00:42:18;;;;;;;5.78;2.92;;;;;;;14.06;100.00;98061.41;4156264;28;20048;-75
2022/10/24 00:44:23;;;;;;;5.95;2.55;;;;;;;14.03;100.00;98070.59;4161453;28;20033;-76
2022/10/24 00:46:23;;;;;;;8.52;2.70;;;;;;;13.97;100.00;98066.66;4158308;28;20041;-76
2022/10/24 00:48:40;;;;;;;8.30;3.60;;;;;;;13.96;100.00;98067.88;4158216;28;20489;-75
2022/10/24 00:50:41;;;;;;;6.25;3.38;;;;;;;13.96;100.00;98067.09;4160734;28;20168;-75
2022/10/24 00:52:45;;;;;;;8.45;3.25;;;;;;;14.00;100.00;98077.00;4157871;28;20040;-75
2022/10/24 00:54:46;;;;;;;7.20;2.83;;;;;;;14.04;100.00;98068.59;4160037;28;20049;-76
2022/10/24 00:56:58;;;;;;;3.95;2.85;;;;;;;13.98;100.00;98071.06;4159591;28;20323;-76
2022/10/24 00:59:01;;;;;;;5.88;2.63;;;;;;;13.91;100.00;98073.91;4161014;28;20148;-76
2022/10/24 01:01:03;;;;;;;4.18;3.05;;;;;;;13.77;100.00;98072.00;4157289;28;20064;-76
2022/10/24 01:03:03;;;;;;;12.77;3.78;;;;;;;13.69;100.00;98075.25;4158395;28;20045;-76
2022/10/24 01:05:06;;;;;;;7.25;2.90;;;;;;;13.54;100.00;98068.22;4158362;28;20048;-75
2022/10/24 01:07:22;;;;;;;4.13;2.67;;;;;;;13.46;100.00;98095.25;4158610;28;20492;-75
2022/10/24 01:09:53;;;;;;;5.18;2.35;;;;;;;13.36;100.00;98094.13;4158170;28;20049;-76
2022/10/24 01:12:12;;;;;;;8.02;2.63;;;;;;;13.28;100.00;98098.13;4161070;28;20060;-76
2022/10/24 01:14:25;;;;;;;7.55;2.85;;;;;;;13.20;100.00;98105.72;4157138;28;20528;-76
2022/10/24 01:16:46;;;;;;;8.82;2.72;;;;;;;13.14;100.00;98103.72;4160355;28;20543;-75
2022/10/24 01:18:55;;;;;;;4.85;2.55;;;;;;;13.10;100.00;98100.19;4161854;28;20099;-76
2022/10/24 01:21:25;;;;;;;5.30;2.63;;;;;;;13.05;100.00;98084.72;4160672;28;20046;-75
2022/10/24 01:24:03;;;;;;;8.63;2.85;;;;;;;13.02;100.00;98091.09;4158677;28;20037;-76
2022/10/24 01:26:41;;;;;;;6.90;2.92;;;;;;;12.95;100.00;98085.56;4158184;28;20072;-76
2022/10/24 01:29:00;;;;;;;8.88;3.28;;;;;;;12.91;100.00;98084.81;4157735;28;20080;-75
2022/10/24 01:31:08;;;;;;;7.75;3.80;;;;;;;12.88;100.00;98080.84;4160404;28;20054;-75
2022/10/24 01:33:17;;;;;;;6.50;2.85;;;;;;;12.86;100.00;98088.00;4159491;28;20045;-75
2022/10/24 01:35:24;;;;;;;10.13;3.00;;;;;;;12.88;100.00;98091.16;4157567;28;20041;-75
2022/10/24 01:37:24;;;;;;;8.75;3.20;;;;;;;12.86;100.00;98085.22;4158679;28;20038;-76
2022/10/24 01:39:31;;;;;;;8.13;2.90;;;;;;;12.89;100.00;98079.63;4159784;28;20049;-76
2022/10/24 01:41:32;;;;;;;7.82;3.10;;;;;;;12.90;100.00;98084.00;4157993;28;20276;-75
2022/10/24 01:43:40;;;;;;;7.03;3.50;;;;;;;12.89;100.00;98093.53;4157579;28;20041;-75
2022/10/24 01:45:44;;;;;;;5.05;2.70;;;;;;;12.83;100.00;98084.03;4160608;28;20152;-75
2022/10/24 01:47:49;;;;;;;7.72;3.10;;;;;;;12.81;100.00;98080.06;4160630;28;20497;-75
2022/10/24 01:50:00;;;;;;;5.00;2.75;;;;;;;12.76;100.00;98075.75;4161037;28;20060;-75
2022/10/24 01:52:03;;;;;;;6.53;2.72;;;;;;;12.67;100.00;98083.72;4160280;28;20504;-76
2022/10/24 01:54:05;;;;;;;3.97;2.85;;;;;;;12.66;100.00;98082.13;4154898;28;20041;-76
2022/10/24 01:56:06;;;;;;;;;;;;;;;12.60;100.00;98081.75;4161208;28;20026;-75
2022/10/24 01:58:07;;;;;;;10.52;3.47;;;;;;;12.55;100.00;98084.91;4156841;28;19974;-75
2022/10/24 02:00:22;;;;;;;7.45;2.88;;;;;;;12.55;100.00;98075.78;4158535;28;20037;-75
2022/10/24 02:02:26;;;;;;;7.20;3.25;;;;;;;12.54;100.00;98068.66;4158052;28;20947;-75
2022/10/24 02:04:30;;;;;;;9.23;3.38;;;;;;;12.54;100.00;98063.13;4156516;28;20044;-75
2022/10/24 02:06:41;;;;;;;6.07;3.00;;;;;;;12.52;100.00;98057.97;4158524;28;20041;-75
2022/10/24 02:08:46;;;;;;;7.18;3.40;;;;;;;12.56;100.00;98053.19;4166465;28;20037;-75
2022/10/24 02:10:51;;;;;;;5.32;2.53;;;;;;;12.58;100.00;98048.06;4162000;28;20075;-75
2022/10/24 02:12:58;;;;;;;11.20;3.30;;;;;;;12.59;100.00;98052.41;4155555;28;20421;-75
2022/10/24 02:15:05;;;;;;;7.00;3.05;;;;;;;12.56;100.00;98055.19;4158193;28;20033;-75
2022/10/24 02:17:05;;;;;;;8.00;3.00;;;;;;;12.53;100.00;98064.31;4155749;28;20108;-75
2022/10/24 02:19:05;;;;;;;8.75;3.45;;;;;;;12.53;100.00;98062.31;4156273;28;20393;-75
2022/10/24 02:21:33;;;;;;;5.95;2.72;;;;;;;12.49;100.00;98060.75;4156116;28;20046;-76
2022/10/24 02:24:00;;;;;;;12.68;3.53;;;;;;;12.52;100.00;98060.75;4159218;28;20230;-75
2022/10/24 02:26:03;;;;;;;7.68;3.00;;;;;;;12.51;100.00;98055.59;4156969;28;20045;-75
2022/10/24 02:28:12;;;;;;;7.20;2.90;;;;;;;12.53;100.00;98058.75;4161454;28;20049;-75
2022/10/24 02:30:18;;;;;;;10.07;3.30;;;;;;;12.56;100.00;98053.19;4157012;28;20037;-75
2022/10/24 02:32:27;;;;;;;15.82;3.70;;;;;;;12.73;100.00;98054.31;4157642;28;20025;-75
2022/10/24 02:34:32;;;;;;;9.25;2.85;;;;;;;12.83;100.00;98055.50;4156083;28;20041;-75
2022/10/24 02:36:34;;;;;;;10.23;3.42;;;;;;;12.85;100.00;98050.31;4156685;28;20037;-75
2022/10/24 02:38:39;;;;;;;4.40;2.40;;;;;;;12.90;100.00;98044.34;4157165;28;20072;-75
2022/10/24 02:40:43;;;;;;;7.28;3.70;;;;;;;12.95;100.00;98043.91;4155497;28;20052;-75
2022/10/24 02:42:46;;;;;;;9.85;2.83;;;;;;;12.99;100.00;98046.66;4154880;28;20064;-75
2022/10/24 02:44:47;;;;;;;10.43;3.53;;;;;;;12.99;100.00;98041.94;4156166;28;20381;-75
2022/10/24 02:46:50;;;;;;;7.68;2.67;;;;;;;13.04;100.00;98043.47;4155724;28;20129;-75
2022/10/24 02:48:56;;;;;;;7.53;2.78;;;;;;;13.09;100.00;98040.28;4162056;28;20049;-75
2022/10/24 02:50:56;;;;;;;7.68;3.20;;;;;;;13.08;100.00;98035.94;4155746;28;20053;-75
2022/10/24 02:52:57;;;;;;;9.75;2.78;;;;;;;13.08;100.00;98041.50;4153671;28;20049;-75
2022/10/24 02:54:57;;;;;;;5.35;2.80;;;;;;;13.09;100.00;98041.06;4156216;28;20348;-75
2022/10/24 02:57:00;;;;;;;7.07;2.90;;;;;;;13.10;100.00;98050.19;4155890;28;20042;-75
2022/10/24 02:59:00;;;;;;;8.77;2.95;;;;;;;13.10;100.00;98058.53;4153388;28;20108;-75
2022/10/24 03:01:00;;;;;;;7.68;3.40;;;;;;;13.14;100.00;98050.97;4154920;28;20478;-75
2022/10/24 03:03:01;;;;;;;7.40;3.40;;;;;;;13.16;100.00;98043.81;4155813;28;20049;-75
2022/10/24 03:05:01;;;;;;;7.43;2.65;;;;;;;13.16;100.00;98034.69;4155060;28;20040;-75
2022/10/24 03:07:01;;;;;;;8.13;3.00;;;;;;;13.20;100.00;98044.59;4159334;28;20075;-75
2022/10/24 03:09:02;;;;;;;11.73;2.95;;;;;;;13.21;100.00;98040.63;4155722;28;20060;-75
2022/10/24 03:11:02;;;;;;;8.93;3.00;;;;;;;13.20;100.00;98047.38;4170365;28;20500;-75
2022/10/24 03:13:03;;;;;;;8.30;2.63;;;;;;;13.23;100.00;98043.00;4160277;28;20086;-75
2022/10/24 03:15:04;;;;;;;6.60;2.72;;;;;;;13.30;100.00;98037.41;4159727;28;20230;-76
2022/10/24 03:17:04;;;;;;;10.48;2.88;;;;;;;13.28;100.00;98044.56;4180076;28;20468;-76
2022/10/24 03:19:04;;;;;;;6.85;3.40;;;;;;;13.23;100.00;98053.31;4161249;28;20819;-75
2022/10/24 03:21:05;;;;;;;7.10;3.13;;;;;;;13.20;100.00;98050.16;4153826;28;20321;-75
2022/10/24 03:23:05;;;;;;;7.75;3.20;;;;;;;13.14;100.00;98057.31;4155404;28;20736;-75
2022/10/24 03:25:06;;;;;;;5.68;2.70;;;;;;;13.14;100.00;98056.50;4155106;28;20056;-75
2022/10/24 03:27:06;;;;;;;7.28;2.92;;;;;;;13.18;100.00;98062.84;4154439;28;20052;-75
2022/10/24 03:29:07;;;;;;;9.27;2.78;;;;;;;13.21;100.00;98059.28;4155004;28;20390;-75
2022/10/24 03:31:07;;;;;;;8.73;2.50;;;;;;;13.35;100.00;98050.88;4155378;28;20041;-75
2022/10/24 03:33:08;;;;;;;7.07;3.00;;;;;;;13.35;100.00;98058.41;4154567;28;20077;-75
2022/10/24 03:35:08;;;;;;;5.47;2.42;;;;;;;13.34;100.00;98057.63;4154539;28;20121;-75
2022/10/24 03:37:09;;;;;;;5.03;2.75;;;;;;;13.40;100.00;98063.53;4156949;28;20064;-75
2022/10/24 03:39:09;;;;;;;8.05;2.67;;;;;;;13.38;100.00;98049.25;4157894;28;20048;-75
2022/10/24 03:41:09;;;;;;;6.15;2.67;;;;;;;13.42;100.00;98039.72;4156767;28;20452;-76
2022/10/24 03:43:10;;;;;;;4.88;2.30;;;;;;;13.51;100.00;98044.03;4154709;28;20300;-75
2022/10/24 03:45:10;;;;;;;6.50;2.80;;;;;;;13.57;100.00;98034.03;4155171;28;20045;-75
2022/10/24 03:47:11;;;;;;;6.22;2.60;;;;;;;13.61;100.00;98035.59;4155008;28;20503;-75
2022/10/24 03:49:11;;;;;;;9.25;2.72;;;;;;;13.61;100.00;98027.25;4152117;28;20107;-75
2022/10/24 03:51:11;;;;;;;9.60;3.08;;;;;;;13.59;100.00;98031.66;4155717;28;20050;-75
2022/10/24 03:53:12;;;;;;;9.73;2.90;;;;;;;13.56;100.00;98027.69;4153853;28;20041;-75
2022/10/24 03:55:12;;;;;;;11.35;2.70;;;;;;;13.53;100.00;98034.06;4153363;28;20080;-75
2022/10/24 03:57:13;;;;;;;7.13;3.00;;;;;;;13.55;100.00;98025.31;4156146;28;20054;-75
2022/10/24 03:59:13;;;;;;;7.15;2.72;;;;;;;13.57;100.00;98022.91;4154553;28;20509;-76
2022/10/24 04:01:17;;;;;;;7.20;2.90;;;;;;;13.59;100.00;98013.00;4154475;28;20404;-76
2022/10/24 04:03:18;;;;;;;6.38;2.60;;;;;;;13.51;100.00;98013.44;4158014;28;20037;-75
2022/10/24 04:05:18;;;;;;;6.63;2.55;;;;;;;13.51;100.00;98011.47;4157323;28;20045;-75
2022/10/24 04:07:18;;;;;;;9.02;2.63;;;;;;;13.43;100.00;98007.94;4158356;28;20048;-75
2022/10/24 04:09:19;;;;;;;11.25;2.97;;;;;;;13.43;100.00;98010.72;4156762;28;20096;-76
2022/10/24 04:11:20;;;;;;;9.18;3.30;;;;;;;13.40;100.00;98003.19;4158844;28;20111;-75
2022/10/24 04:13:20;;;;;;;10.13;2.75;;;;;;;13.42;100.00;98013.91;4157490;28;20140;-75
2022/10/24 04:15:20;;;;;;;13.40;2.75;;;;;;;13.39;100.00;98018.28;4158590;28;20049;-75
2022/10/24 04:17:21;;;;;;;9.25;2.65;;;;;;;13.34;100.00;98015.94;4158392;28;20382;-75
2022/10/24 04:19:21;;;;;;;9.77;3.30;;;;;;;13.32;100.00;98012.81;4158565;28;20132;-75
2022/10/24 04:21:21;;;;;;;6.55;2.85;;;;;;;13.26;100.00;98008.88;4158075;28;20475;-75
2022/10/24 04:23:21;;;;;;;10.40;2.85;;;;;;;13.37;100.00;98006.78;4156158;28;20103;-76
2022/10/24 04:25:22;;;;;;;11.55;3.28;;;;;;;13.38;100.00;98004.81;4157272;28;20535;-75
2022/10/24 04:27:22;;;;;;;6.93;2.60;;;;;;;13.43;100.00;98007.16;4158336;28;20057;-75
2022/10/24 04:29:22;;;;;;;8.90;2.80;;;;;;;13.50;100.00;98004.31;4157229;28;20500;-75
2022/10/24 04:31:23;;;;;;;5.05;2.50;;;;;;;13.43;100.00;98005.16;4156882;28;20548;-75
2022/10/24 04:33:24;;;;;;;8.68;3.00;;;;;;;13.45;100.00;98008.31;4158973;28;20075;-75
2022/10/24 04:35:24;;;;;;;12.07;2.97;;;;;;;13.43;100.00;98018.28;4158471;28;20041;-75
2022/10/24 04:37:25;;;;;;;8.55;2.72;;;;;;;13.46;100.00;98015.44;4158311;28;20163;-75
2022/10/24 04:39:25;;;;;;;7.93;2.90;;;;;;;13.52;100.00;98009.47;4159864;28;20045;-75
2022/10/24 04:41:25;;;;;;;4.35;3.00;;;;;;;13.52;100.00;98020.59;4157752;28;20432;-75
2022/10/24 04:43:26;;;;;;;8.23;2.72;;;;;;;13.67;100.00;98016.50;4156499;28;20053;-75
2022/10/24 04:45:26;;;;;;;8.25;2.80;;;;;;;13.64;100.00;98014.53;4159226;28;20053;-75
2022/10/24 04:47:26;;;;;;;6.05;2.38;;;;;;;13.63;100.00;98024.84;4160429;28;20049;-75
2022/10/24 04:49:27;;;;;;;7.00;2.75;;;;;;;13.67;100.00;98016.50;4157155;28;20049;-75
2022/10/24 04:51:27;;;;;;;8.32;3.15;;;;;;;13.67;100.00;98013.72;4157096;28;20049;-75
2022/10/24 04:53:28;;;;;;;11.00;2.90;;;;;;;13.74;100.00;98011.69;4157225;28;20085;-75
2022/10/24 04:55:28;;;;;;;10.15;2.88;;;;;;;13.88;99.65;98021.88;4161031;28;20075;-75
2022/10/24 04:57:28;;;;;;;9.65;3.08;;;;;;;13.90;99.33;98018.66;4112656;28;20049;-75
2022/10/24 04:59:28;;;;;;;6.72;2.83;;;;;;;13.84;99.63;98020.34;4164416;28;20291;-75
2022/10/24 05:01:29;;;;;;;11.57;3.05;;;;;;;13.86;99.98;98021.50;4158234;28;20049;-75
2022/10/24 05:03:29;;;;;;;7.70;2.50;;;;;;;13.83;99.07;98018.75;4157882;28;20037;-75
2022/10/24 05:05:29;;;;;;;5.65;2.13;;;;;;;13.84;99.36;98032.25;4157400;28;20052;-75
2022/10/24 05:07:30;;;;;;;8.98;2.70;;;;;;;13.91;98.78;98040.53;4159235;28;20814;-75
2022/10/24 05:09:30;;;;;;;6.82;2.80;;;;;;;13.89;98.65;98042.91;4161344;28;20056;-76
2022/10/24 05:11:30;;;;;;;7.70;2.92;;;;;;;13.88;98.22;98034.97;4157445;28;20464;-75
2022/10/24 05:13:31;;;;;;;5.82;2.40;;;;;;;13.85;98.48;98049.72;4160048;28;20068;-75
2022/10/24 05:15:31;;;;;;;9.70;2.75;;;;;;;13.87;98.26;98053.66;4157575;28;20051;-75
2022/10/24 05:17:32;;;;;;;5.90;2.25;;;;;;;13.85;98.43;98064.41;4158712;28;20057;-75
2022/10/24 05:19:32;;;;;;;8.88;2.40;;;;;;;13.85;98.15;98060.84;4158806;28;20058;-75
2022/10/24 05:21:32;;;;;;;5.35;2.28;;;;;;;13.86;98.07;98057.63;4158606;28;20044;-75
2022/10/24 05:23:33;;;;;;;5.13;2.53;;;;;;;13.86;97.40;98052.06;4161144;28;20041;-75
2022/10/24 05:25:33;;;;;;;9.25;2.22;;;;;;;13.86;98.09;98043.75;4161013;28;20044;-75
2022/10/24 05:27:33;;;;;;;7.10;2.38;;;;;;;13.82;98.06;98037.44;4160062;28;20453;-75
2022/10/24 05:29:34;;;;;;;7.70;2.55;;;;;;;13.81;98.07;98040.59;4159968;28;20045;-75
2022/10/24 05:31:34;;;;;;;4.38;2.08;;;;;;;13.82;97.37;98037.44;4159075;28;20524;-75
2022/10/24 05:33:34;;;;;;;5.25;2.15;;;;;;;13.74;98.44;98041.47;4157334;28;20071;-75
2022/10/24 05:35:35;;;;;;;8.50;2.10;;;;;;;13.72;98.46;98030.72;4157251;28;20037;-75
2022/10/24 05:37:36;;;;;;;7.10;2.58;;;;;;;13.69;98.02;98022.44;4159655;28;20040;-76
2022/10/24 05:39:36;;;;;;;10.65;2.22;;;;;;;13.61;98.54;98012.56;4157536;28;20037;-75
2022/10/24 05:41:36;;;;;;;5.53;2.05;;;;;;;13.60;98.68;98027.69;4158418;28;20059;-75
2022/10/24 05:43:37;;;;;;;6.38;2.00;;;;;;;13.59;98.39;98026.09;4158527;28;20053;-75
2022/10/24 05:45:37;;;;;;;5.03;2.15;;;;;;;13.62;98.27;98023.28;4155909;28;20049;-75
2022/10/24 05:47:37;;;;;;;8.98;2.28;;;;;;;13.63;97.98;98021.28;4158798;28;20110;-75
2022/10/24 05:49:37;;;;;;;7.07;2.20;;;;;;;13.62;97.99;98016.94;4158654;28;20719;-75
2022/10/24 05:51:38;;;;;;;6.72;2.20;;;;;;;13.63;98.23;98024.06;4159357;28;20057;-75
2022/10/24 05:53:38;;;;;;;7.28;2.30;;;;;;;13.62;98.38;98033.59;4156748;28;20394;-75
2022/10/24 05:55:38;;;;;;;6.18;2.72;;;;;;;13.59;98.51;98038.00;4156450;28;20152;-75
2022/10/24 05:57:39;;;;;;;4.15;2.33;;;;;;;13.61;98.01;98040.38;4157632;28;20041;-75
2022/10/24 05:59:39;;;;;;;7.35;2.25;;;;;;;13.62;97.96;98039.97;4161031;28;20119;-75
2022/10/24 06:01:40;;;;;;;5.78;2.10;;;;;;;13.63;98.22;98044.31;4155663;28;20052;-75
2022/10/24 06:03:41;;;;;;;8.27;2.53;;;;;;;13.65;97.51;98041.13;4157944;28;20033;-75
2022/10/24 06:05:41;;;;;;;7.80;2.47;;;;;;;13.76;96.48;98050.19;4157108;28;20056;-75
2022/10/24 06:07:41;;;;;;;5.88;2.05;;;;;;;13.85;96.18;98038.59;4156883;28;20041;-75
2022/10/24 06:09:42;;;;;;;8.93;2.33;;;;;;;13.89;95.21;98056.81;4160423;28;20088;-75
2022/10/24 06:11:42;;;;;;;5.95;1.85;;;;;;;13.96;94.75;98056.75;4161707;28;20033;-75
2022/10/24 06:13:43;;;;;;;4.28;1.80;;;;;;;14.00;95.00;98067.88;4154903;28;20037;-75
2022/10/24 06:15:43;;;;;;;6.38;2.08;;;;;;;13.98;95.03;98073.03;4158755;28;20068;-75
2022/10/24 06:17:43;;;;;;;7.30;2.22;;;;;;;13.93;95.80;98065.13;4161350;28;20198;-75
2022/10/24 06:19:45;;;;;;;7.13;2.17;;;;;;;13.96;95.83;98033.72;4155654;28;20136;-75
2022/10/24 06:21:45;;;;;;;6.90;2.28;;;;;;;13.93;96.04;98010.31;4157525;28;20412;-75
2022/10/24 06:23:45;;;;;;;4.35;1.80;;;;;;;13.93;96.70;98037.31;4158077;28;20048;-75
2022/10/24 06:25:45;;;;;;;6.70;2.58;;;;;;;13.86;96.87;98029.03;4159027;28;20512;-75
2022/10/24 06:27:47;;;;;;;7.50;2.10;;;;;;;13.82;96.94;98053.28;4158719;28;20098;-75
2022/10/24 06:29:47;;;;;;;4.63;1.90;;;;;;;13.75;97.72;98046.63;4159414;28;20087;-75
2022/10/24 06:31:47;;;;;;;6.88;2.10;;;;;;;13.72;98.22;98043.84;4156754;28;20504;-75
2022/10/24 06:33:48;;;;;;;8.75;2.15;;;;;;;13.66;98.27;98056.63;4159095;28;20042;-75
2022/10/24 06:35:48;;;;;;;4.72;1.85;;;;;;;13.64;98.45;98079.25;4157448;28;20049;-76
2022/10/24 06:37:48;;;;;;;9.45;2.22;;;;;;;13.61;98.39;98090.41;4159328;28;20516;-75
2022/10/24 06:39:49;;;;;;;8.85;2.28;;;;;;;13.59;98.62;98090.03;4158584;28;20047;-76
2022/10/24 06:41:49;;;;;;;6.15;2.33;;;;;;;13.58;98.64;98094.00;4158458;28;20385;-75
2022/10/24 06:43:52;;;;;;;6.22;2.63;;;;;;;13.60;98.86;98106.28;4156926;28;20045;-75
2022/10/24 06:45:52;;;;;;;7.65;1.80;;;;;;;13.58;98.68;98116.25;4157749;28;20374;-75
2022/10/24 06:47:52;;;;;;;8.98;2.53;;;;;;;13.61;98.38;98112.63;4156953;28;20114;-75
2022/10/24 06:49:53;;;;;;;8.57;2.30;;;;;;;13.58;98.74;98110.69;4156297;28;20084;-75
2022/10/24 06:51:53;;;;;;;5.15;1.90;;;;;;;13.56;98.63;98102.72;4160059;28;20076;-75
2022/10/24 06:53:53;;;;;;;7.22;2.13;;;;;;;13.55;98.90;98103.94;4155770;28;20033;-75
2022/10/24 06:55:53;;;;;;;8.60;2.35;;;;;;;13.54;98.65;98104.34;4158130;28;20041;-75
2022/10/24 06:57:54;;;;;;;4.13;1.70;;;;;;;13.52;98.79;98110.31;4157106;28;20833;-75
2022/10/24 06:59:54;;;;;;;6.53;1.90;;;;;;;13.57;98.67;98107.13;4157556;28;20316;-75
2022/10/24 07:01:54;;;;;;;3.75;1.58;;;;;;;13.61;98.11;98102.31;4157864;28;20493;-75
2022/10/24 07:03:55;;;;;;;6.68;1.77;;;;;;;13.62;98.39;98106.66;4156502;28;20033;-75
2022/10/24 07:05:55;;;;;;;6.38;1.73;;;;;;;13.65;98.21;98107.84;4157022;28;20045;-75
2022/10/24 07:07:55;;;;;;;8.88;2.67;;;;;;;13.62;98.70;98106.66;4158896;28;20130;-75
2022/10/24 07:09:56;;;;;;;5.55;1.70;;;;;;;13.65;99.01;98107.84;4155896;28;20727;-75
2022/10/24 07:11:57;;;;;;;6.32;1.80;;;;;;;13.64;98.95;98101.47;4154501;28;20289;-75
2022/10/24 07:13:57;;;;;;;7.32;2.10;;;;;;;13.69;98.53;98103.06;4153740;28;20505;-75
2022/10/24 07:15:57;;;;;;;4.30;2.20;;;;;;;13.69;98.23;98114.97;4154321;28;20049;-75
2022/10/24 07:17:57;;;;;;;4.38;1.63;;;;;;;13.79;98.48;98102.19;4160177;28;20117;-76
2022/10/24 07:19:58;;;;;;;6.65;2.50;;;;;;;13.78;98.27;98104.16;4154826;28;20076;-75
2022/10/24 07:21:58;;;;;;;3.30;1.80;;;;;;;13.80;98.57;98097.41;4155074;28;20045;-76
2022/10/24 07:23:59;;;;;;;6.03;1.60;;;;;;;13.81;97.69;98104.53;4154126;28;20092;-75
2022/10/24 07:26:05;;;;;;;8.15;2.22;;;;;;;13.78;97.92;98100.59;4155122;28;20060;-75
2022/10/24 07:28:07;;;;;;;3.70;1.63;;;;;;;13.87;97.70;98109.28;4159298;28;20039;-75
2022/10/24 07:30:08;;;;;;;7.63;1.75;;;;;;;13.92;97.50;98108.06;4157138;28;20068;-75
2022/10/24 07:32:09;;;;;;;4.63;1.70;;;;;;;13.97;96.55;98111.16;4156998;28;20020;-75
2022/10/24 07:34:10;;;;;;;3.60;1.63;;;;;;;14.00;96.37;98104.03;4154706;28;20032;-75
2022/10/24 07:36:15;;;;;;;6.13;2.00;;;;;;;13.98;96.74;98107.22;4159109;28;20170;-75
2022/10/24 07:38:16;;;;;;;9.30;1.75;;;;;;;14.03;96.32;98115.09;4154704;28;20353;-75
2022/10/24 07:40:16;;;;;;;4.22;1.60;;;;;;;14.03;96.73;98108.75;4155346;28;20034;-75
2022/10/24 07:42:17;;;;;;;5.45;1.85;;;;;;;14.01;96.04;98097.25;4158308;28;20472;-75
2022/10/24 07:44:18;;;;;;;5.57;1.70;;;;;;;14.04;95.88;98096.41;4156552;28;20033;-75
2022/10/24 07:46:18;;;;;;;8.55;2.20;;;;;;;14.12;96.27;98095.16;4154974;28;20200;-75
2022/10/24 07:48:19;;;;;;;7.43;2.28;;;;;;;14.27;95.38;98093.84;4156970;28;20026;-75
2022/10/24 07:50:19;;;;;;;3.80;1.67;;;;;;;14.31;94.48;98093.78;4158707;28;20075;-75
2022/10/24 07:52:19;;;;;;;8.43;2.45;;;;;;;14.37;94.04;98092.16;4154839;28;20053;-76
2022/10/24 07:54:19;;;;;;;8.82;1.90;;;;;;;14.46;93.64;98081.34;4160464;28;20029;-75
2022/10/24 07:56:20;;;;;;;5.72;1.90;;;;;;;14.48;93.80;98083.72;4158760;28;20029;-75
2022/10/24 07:58:21;;;;;;;5.22;2.08;;;;;;;14.43;93.66;98087.72;4155648;28;20552;-75
2022/10/24 08:00:21;;;;;;;7.80;1.98;;;;;;;14.45;94.62;98092.88;4154433;28;20126;-75
2022/10/24 08:02:21;;;;;;;5.28;2.10;;;;;;;14.49;94.34;98090.88;4154154;28;20566;-76
2022/10/24 08:04:22;;;;;;;6.45;2.03;;;;;;;14.41;94.07;98100.47;4160826;28;20374;-75
2022/10/24 08:06:27;;;;;;;15.55;2.70;;;;;;;14.49;94.42;98097.25;4156505;28;20069;-75
2022/10/24 08:08:27;;;;;;;5.10;2.00;;;;;;;14.52;94.29;98092.84;4156207;28;20052;-75
2022/10/24 08:10:27;;;;;;;5.97;2.30;;;;;;;14.54;93.30;98082.06;4155133;28;20052;-75
2022/10/24 08:12:28;;;;;;;6.95;2.03;;;;;;;14.53;94.03;98081.28;4154756;28;20084;-75
2022/10/24 08:14:28;;;;;;;6.45;2.05;;;;;;;14.49;93.70;98088.88;4153631;28;20043;-75
2022/10/24 08:16:28;;;;;;;5.68;2.20;;;;;;;14.51;94.37;98088.47;4156397;28;20044;-75
2022/10/24 08:18:29;;;;;;;8.32;2.33;;;;;;;14.56;93.87;98093.56;4158919;28;20466;-75
2022/10/24 08:20:29;;;;;;;6.95;2.55;;;;;;;14.55;93.65;98094.78;4154638;28;20042;-75
2022/10/24 08:22:29;;;;;;;5.72;1.95;;;;;;;14.56;93.70;98093.56;4155491;28;20144;-75
2022/10/24 08:24:30;;;;;;;7.47;2.50;;;;;;;14.52;94.42;98101.19;4154809;28;20429;-75
2022/10/24 08:26:30;;;;;;;8.32;2.00;;;;;;;14.56;93.83;98088.81;4155440;28;20481;-75
2022/10/24 08:28:30;;;;;;;6.55;2.08;;;;;;;14.54;94.15;98070.94;4156459;28;21237;-75
2022/10/24 08:30:31;;;;;;;6.28;2.10;;;;;;;14.69;93.57;98086.28;4154007;28;20042;-76
2022/10/24 08:32:31;;;;;;;4.38;2.00;;;;;;;14.75;93.56;98090.19;4154411;28;20095;-75
2022/10/24 08:34:32;;;;;;;9.18;2.30;;;;;;;14.77;93.09;98089.78;4153878;28;20046;-75
2022/10/24 08:36:34;;;;;;;8.13;2.22;;;;;;;14.80;93.68;98098.06;4155236;28;20458;-75
2022/10/24 08:38:34;;;;;;;11.45;2.35;;;;;;;14.78;93.47;98092.13;4157721;28;20492;-75
2022/10/24 08:40:35;;;;;;;6.00;2.45;;;;;;;14.81;93.05;98090.50;4156261;28;20045;-75
2022/10/24 08:42:35;;;;;;;6.78;2.55;;;;;;;14.84;93.19;98098.06;4152896;28;20124;-75
2022/10/24 08:44:41;;;;;;;8.60;2.20;;;;;;;14.78;92.84;98100.50;4154718;28;20076;-75
2022/10/24 08:46:53;;;;;;;9.80;2.90;;;;;;;14.84;93.51;98103.63;4159830;28;20050;-75
2022/10/24 08:49:24;;;;;;;6.78;1.95;;;;;;;14.82;93.01;98104.03;4156616;28;20046;-75
2022/10/24 08:51:37;;;;;;;4.07;2.33;;;;;;;14.90;94.17;98104.75;4157637;28;20052;-75
2022/10/24 08:53:38;;;;;;;6.32;2.00;;;;;;;14.89;93.90;98103.16;4158920;28;20041;-75
2022/10/24 08:55:44;;;;;;;7.25;2.25;;;;;;;14.96;92.89;98102.28;4158227;28;20045;-76
2022/10/24 08:57:51;;;;;;;3.53;2.10;;;;;;;15.03;92.54;98093.84;4156805;28;20045;-76
2022/10/24 08:59:53;;;;;;;7.57;2.15;;;;;;;15.08;92.23;98101.75;4157456;28;20049;-75
2022/10/24 09:01:56;;;;;;;;;;;;;;;15.14;92.02;98092.50;4157027;28;20406;-75
2022/10/24 09:04:02;;;;;;;7.22;2.63;;;;;;;15.18;91.21;98095.25;4156672;28;19929;-75
2022/10/24 09:06:07;;;;;;;7.28;2.55;;;;;;;15.16;91.41;98083.72;4157342;28;20165;-76
2022/10/24 09:08:27;;;;;;;5.13;2.65;;;;;;;15.17;91.92;98083.31;4156951;28;20056;-76
2022/10/24 09:10:58;;;;;;;11.50;3.35;;;;;;;15.25;91.35;98086.78;4157300;28;20505;-75
2022/10/24 09:12:58;;;;;;;10.93;2.40;;;;;;;15.23;91.03;98080.84;4157766;28;20128;-76
2022/10/24 09:14:59;;;;;;;8.13;2.42;;;;;;;15.37;90.07;98068.69;4157896;28;20325;-75
2022/10/24 09:17:19;;;;;;;3.88;2.38;;;;;;;15.29;90.39;98072.78;4159084;28;20285;-75
2022/10/24 09:19:23;;;;;;;5.75;2.92;;;;;;;15.37;89.96;98083.41;4156104;28;20034;-76
2022/10/24 09:21:24;;;;;;;6.20;2.45;;;;;;;15.32;90.58;98067.19;4156944;28;20038;-76
2022/10/24 09:23:25;;;;;;;8.45;2.47;;;;;;;15.38;89.91;98073.84;4155377;28;20526;-75
2022/10/24 09:25:30;;;;;;;9.73;2.83;;;;;;;15.40;90.18;98077.03;4157629;28;20502;-75
2022/10/24 09:27:33;;;;;;;4.75;2.13;;;;;;;15.35;89.99;98074.69;4156152;28;20053;-75
2022/10/24 09:29:34;;;;;;;8.80;2.67;;;;;;;15.41;90.42;98063.88;4159452;28;20045;-75
2022/10/24 09:31:34;;;;;;;7.93;2.92;;;;;;;15.39;90.36;98055.13;4156812;28;20045;-76
2022/10/24 09:33:39;;;;;;;8.13;2.40;;;;;;;15.46;89.58;98061.38;4153861;28;20501;-75
2022/10/24 09:35:41;;;;;;;7.93;2.88;;;;;;;15.38;90.27;98059.91;4156276;28;20398;-75